Latest Weather Observations for Williamtown

IDN60801

Issued at 12:33 pm EST Wednesday 21 April 2021 (issued every 10 minutes, with the page automatically refreshed every 10 minutes)

About weather observations | Map of weather stations | Latest weather observations for NSW | Other Formats
Station Details ID: 061078 Name: WILLIAMTOWN RAAF Lat: -32.79 Lon: 151.84 Height: 7.5 m
Data from the previous 72 hours. | See also: Recent months at Williamtown
Date/Time
EST
Temp
°C
App
Temp
°C
Dew
Point
°C
Rel
Hum
%
Delta-T
°C
Wind Press
QNH
hPa
Press
MSL
hPa
Rain since
9am
mm
Dir  Spd
km/h
Gust
km/h
Spd
kts
Gust
kts
21/12:00pm 19.5 14.4 4.0 36 7.4 SSW 20 33 11 18 1013.0 1012.9 0.0
21/11:30am 19.3 13.2 4.6 38 7.1 SSW 26 35 14 19 1013.1 1013.0 0.0
21/11:00am 19.5 12.6 4.8 38 7.1 SSW 30 37 16 20 1012.9 1012.8 0.0
21/10:30am 19.0 12.4 6.2 43 6.3 SSW 30 39 16 21 1013.0 1012.9 0.0
21/10:00am 17.5 11.5 7.0 50 5.2 SSW 28 37 15 20 1012.7 1012.6 0.0
21/09:30am 19.0 14.5 8.4 50 5.5 SW 22 32 12 17 1012.5 1012.4 0.0
21/09:00am 17.9 14.5 7.6 51 5.2 W 15 19 8 10 1012.5 1012.4 0.0
21/08:30am 16.7 12.4 6.8 52 4.9 WNW 19 26 10 14 1012.4 1012.3 0.0
21/08:00am 15.7 11.3 6.7 55 4.4 WNW 19 24 10 13 1012.0 1011.9 0.0
21/07:30am 14.8 8.9 5.6 54 4.4 WNW 26 33 14 18 1011.5 1011.4 0.0
21/07:00am 14.6 8.3 5.7 55 4.2 WNW 28 33 15 18 1011.0 1010.9 0.0
21/06:30am 14.7 8.3 5.2 53 4.5 WNW 28 35 15 19 1010.4 1010.3 0.0
21/06:00am 14.8 8.4 5.3 53 4.5 WNW 28 33 15 18 1010.2 1010.1 0.0
21/05:30am 14.5 8.6 5.6 55 4.2 WNW 26 32 14 17 1009.7 1009.6 0.0
21/05:00am 13.9 8.0 6.0 59 3.8 WNW 26 32 14 17 1009.5 1009.4 0.0
21/04:30am 12.4 8.3 7.9 74 2.2 WNW 19 24 10 13 1009.3 1009.2 0.0
21/04:00am 14.1 8.8 6.9 62 3.5 NW 24 30 13 16 1009.0 1008.9 0.0
21/03:30am 15.2 9.8 6.5 56 4.2 NW 24 30 13 16 1008.9 1008.8 0.0
21/03:00am 16.0 11.6 7.5 57 4.2 NW 20 26 11 14 1009.0 1008.9 0.0
21/02:30am 16.3 11.9 7.3 55 4.5 NNW 20 28 11 15 1009.3 1009.2 0.0
21/02:00am 16.2 12.1 7.7 57 4.3 NW 19 26 10 14 1009.9 1009.8 0.0
21/01:30am 15.8 12.1 8.1 60 3.9 NW 17 20 9 11 1010.3 1010.2 0.0
21/01:00am 15.1 12.4 9.0 67 3.1 NW 13 15 7 8 1010.6 1010.5 0.0
21/12:30am 12.5 11.0 10.6 88 1.0 NNW 9 11 5 6 1010.8 1010.7 0.0
21/12:00am 12.2 11.1 10.8 91 0.7 NW 7 9 4 5 1011.2 1011.1 0.0
 
Date/Time
EST
Temp
°C
App
Temp
°C
Dew
Point
°C
Rel
Hum
%
Delta-T
°C
Wind Press
QNH
hPa
Press
MSL
hPa
Rain since
9am
mm
Dir  Spd
km/h
Gust
km/h
Spd
kts
Gust
kts
20/11:30pm 12.2 10.9 11.4 95 0.4 NW 9 11 5 6 1011.4 1011.3 0.0
20/11:00pm 13.1 13.7 11.8 92 0.7 CALM 0 9 0 5 1011.6 1011.5 0.0
20/10:30pm 12.9 11.8 10.6 86 1.2 NW 7 9 4 5 1011.7 1011.6 0.0
20/10:00pm 13.9 13.1 10.9 82 1.6 NNW 6 9 3 5 1011.9 1011.8 0.0
20/09:30pm 15.1 14.9 11.9 81 1.7 NNE 4 9 2 5 1011.9 1011.8 0.0
20/09:00pm 15.3 15.2 10.9 75 2.3 WNW 2 7 1 4 1011.9 1011.8 0.0
20/08:30pm 16.2 14.5 11.2 72 2.7 N 11 13 6 7 1011.8 1011.7 0.0
20/08:00pm 16.2 15.1 12.0 76 2.3 N 9 11 5 6 1011.9 1011.8 0.0
20/07:30pm 16.5 16.1 11.2 71 2.9 N 4 7 2 4 1012.3 1012.2 0.0
20/07:00pm 17.4 15.9 10.5 64 3.7 NNE 9 13 5 7 1012.0 1011.9 0.0
20/06:30pm 17.8 15.9 10.4 62 3.9 NNE 11 15 6 8 1011.8 1011.7 0.0
20/06:00pm 18.4 17.1 10.0 58 4.5 NNE 7 9 4 5 1011.4 1011.3 0.0
20/05:30pm 19.7 17.9 9.3 51 5.5 NNE 9 13 5 7 1011.2 1011.1 0.0
20/05:00pm 20.9 18.8 8.2 44 6.6 NNE 9 11 5 6 1011.3 1011.2 0.0
20/04:30pm 21.0 18.8 8.0 43 6.8 NNW 9 13 5 7 1011.4 1011.3 0.0
20/04:00pm 21.8 18.6 6.9 38 7.6 NW 13 17 7 9 1011.4 1011.3 0.0
20/03:30pm 22.4 18.4 6.6 36 8.1 NW 17 26 9 14 1011.5 1011.4 0.0
20/03:00pm 23.0 18.3 5.9 33 8.7 WNW 20 32 11 17 1011.5 1011.4 0.0
20/02:30pm 22.7 18.5 7.3 37 8.0 WNW 19 28 10 15 1011.8 1011.7 0.0
20/02:00pm 23.0 17.6 6.3 34 8.5 WNW 24 30 13 16 1012.2 1012.1 0.0
20/01:30pm 23.0 18.0 6.3 34 8.5 W 22 33 12 18 1012.4 1012.3 0.0
20/01:00pm 22.7 15.7 6.0 34 8.5 WNW 32 46 17 25 1012.8 1012.7 0.0
20/12:30pm 21.9 16.2 6.6 37 7.8 WNW 26 35 14 19 1013.4 1013.3 0.0
20/12:00pm 21.9 15.7 6.2 36 7.9 WNW 28 41 15 22 1014.0 1013.9 0.0
20/11:30am 22.3 16.4 7.7 39 7.6 WNW 28 41 15 22 1014.5 1014.4 0.0
20/11:00am 21.2 16.3 8.5 44 6.7 WNW 24 35 13 19 1015.3 1015.2 0.0
20/10:30am 19.9 15.9 8.9 49 5.8 WNW 20 28 11 15 1015.9 1015.8 0.0
20/10:00am 18.9 13.8 7.7 48 5.7 WNW 24 32 13 17 1016.3 1016.2 0.0
20/09:30am 18.1 14.5 10.0 59 4.3 NW 19 26 10 14 1016.3 1016.2 0.0
20/09:00am 15.7 12.8 9.8 68 3.1 NW 15 19 8 10 1016.6 1016.5 0.2
20/08:30am 14.1 11.8 10.3 78 2.0 NW 13 15 7 8 1017.0 1016.9 0.2
20/08:00am 12.9 10.9 10.3 84 1.3 WNW 11 15 6 8 1017.0 1016.9 0.2
20/07:30am 12.0 9.0 9.2 83 1.4 WNW 15 24 8 13 1016.9 1016.8 0.2
20/07:00am 10.6 8.5 9.8 95 0.4 WNW 11 17 6 9 1016.6 1016.5 0.2
20/06:30am 9.0 6.6 8.6 97 0.2 WNW 11 13 6 7 1016.4 1016.3 0.2
20/06:00am 9.5 6.9 9.2 98 0.1 WNW 13 15 7 8 1016.2 1016.1 0.2
20/05:30am 10.0 6.6 9.2 95 0.4 WNW 17 19 9 10 1015.9 1015.8 0.2
20/05:00am 9.9 7.3 9.3 96 0.3 WNW 13 13 7 7 1015.7 1015.6 0.2
20/04:30am 9.7 7.1 9.4 98 0.1 NW 13 15 7 8 1015.6 1015.5 0.2
20/04:00am 9.7 7.6 9.6 99 0.0 WNW 11 11 6 6 1015.3 1015.2 0.2
20/03:30am 10.5 9.4 10.5 100 0.0 WNW 7 9 4 5 1015.0 1014.9 0.2
20/03:00am 10.4 8.9 10.4 100 0.0 WNW 9 11 5 6 1014.9 1014.8 0.2
20/02:30am 10.1 8.8 9.8 98 0.2 W 7 9 4 5 1015.1 1015.0 0.2
20/02:00am 11.4 10.4 11.1 98 0.2 NW 7 7 4 4 1015.3 1015.2 0.2
20/01:30am 11.9 11.0 11.4 97 0.3 NW 7 9 4 5 1015.4 1015.3 0.2
20/01:00am 12.5 12.0 11.9 96 0.3 WNW 6 7 3 4 1015.7 1015.6 0.2
20/12:30am 13.0 12.4 12.2 95 0.4 NNW 7 11 4 6 1015.8 1015.7 0.2
20/12:00am 12.5 11.4 12.0 97 0.3 NW 9 11 5 6 1015.8 1015.7 0.2
 
Date/Time
EST
Temp
°C
App
Temp
°C
Dew
Point
°C
Rel
Hum
%
Delta-T
°C
Wind Press
QNH
hPa
Press
MSL
hPa
Rain since
9am
mm
Dir  Spd
km/h
Gust
km/h
Spd
kts
Gust
kts
19/11:30pm 13.4 14.1 12.3 93 0.6 CALM 0 9 0 5 1015.7 1015.6 0.2
19/11:00pm 14.0 13.3 13.1 94 0.5 N 9 9 5 5 1015.9 1015.8 0.2
19/10:30pm 14.2 13.5 13.1 93 0.6 N 9 11 5 6 1016.0 1015.9 0.2
19/10:00pm 14.8 14.2 13.5 92 0.7 N 9 13 5 7 1016.2 1016.1 0.2
19/09:30pm 15.1 13.8 13.8 92 0.7 NNE 13 15 7 8 1016.3 1016.2 0.2
19/09:00pm 15.2 14.4 13.9 92 0.7 N 11 17 6 9 1016.4 1016.3 0.2
19/08:30pm 15.6 15.3 13.4 87 1.2 N 7 7 4 4 1016.3 1016.2 0.2
19/08:00pm 16.8 15.6 14.1 84 1.5 NE 13 15 7 8 1016.2 1016.1 0.2
19/07:30pm 17.1 15.9 14.0 82 1.8 NE 13 17 7 9 1016.2 1016.1 0.2
19/07:00pm 17.1 15.9 14.0 82 1.8 NNE 13 15 7 8 1016.0 1015.9 0.2
19/06:30pm 17.3 16.9 14.0 81 1.9 NE 9 13 5 7 1015.8 1015.7 0.2
19/06:00pm 17.8 16.4 13.5 76 2.4 NE 13 15 7 8 1015.6 1015.5 0.2
19/05:30pm 18.8 17.7 13.0 69 3.3 NE 11 15 6 8 1015.4 1015.3 0.2
19/05:00pm 21.5 20.8 10.0 48 6.2 NNW 4 7 2 4 1015.3 1015.2 0.2
19/04:30pm 22.5 19.9 7.9 39 7.6 NW 11 15 6 8 1015.2 1015.1 0.2
19/04:00pm 22.6 20.4 9.4 43 7.1 NNW 11 15 6 8 1015.2 1015.1 0.2
19/03:30pm 22.9 19.8 7.4 37 8.1 NW 13 19 7 10 1015.0 1014.9 0.2
19/03:00pm 23.0 20.2 8.7 40 7.6 WNW 13 20 7 11 1015.0 1014.9 0.2
19/02:30pm 22.9 19.5 7.8 38 7.9 WNW 15 22 8 12 1015.2 1015.1 0.2
19/02:00pm 22.5 20.8 11.3 49 6.2 NW 11 17 6 9 1015.4 1015.3 0.2
19/01:30pm 22.3 20.3 11.4 50 6.1 NW 13 20 7 11 1015.6 1015.5 0.2
19/01:00pm 22.0 19.7 11.7 52 5.8 NW 15 22 8 12 1016.0 1015.9 0.2
19/12:30pm 21.6 18.7 11.0 51 5.8 NW 17 22 9 12 1016.5 1016.4 0.2
19/12:00pm 21.0 19.4 12.9 60 4.6 NW 13 17 7 9 1017.2 1017.1 0.2
19/11:30am 20.0 17.9 12.5 62 4.2 NW 15 22 8 12 1017.8 1017.7 0.2
19/11:00am 19.1 16.8 13.1 68 3.4 WNW 17 20 9 11 1018.4 1018.3 0.2
19/10:30am 17.9 14.8 12.1 69 3.2 WNW 20 26 11 14 1018.9 1018.8 0.0
19/10:00am 17.2 14.9 12.9 76 2.4 WNW 17 20 9 11 1019.2 1019.1 0.0
19/09:30am 15.6 13.1 12.4 81 1.8 WNW 17 20 9 11 1019.3 1019.2 0.0
19/09:00am 14.7 12.7 12.6 87 1.1 WNW 15 20 8 11 1019.5 1019.4 0.2
19/08:30am 13.8 10.2 11.8 88 1.1 WNW 22 28 12 15 1019.5 1019.4 0.2
19/08:00am 12.7 10.8 11.9 95 0.4 NW 13 17 7 9 1019.6 1019.5 0.2
19/07:30am 11.6 9.2 11.4 99 0.1 NW 15 19 8 10 1019.4 1019.3 0.2
19/07:00am 10.8 8.2 10.8 100 0.0 NW 15 17 8 9 1019.2 1019.1 0.2
19/06:30am 10.4 8.5 10.4 100 0.0 WNW 11 13 6 7 1019.1 1019.0 0.2
19/06:00am 11.0 9.2 11.0 100 0.0 NW 11 13 6 7 1019.1 1019.0 0.2
19/05:30am 11.2 9.1 11.2 100 0.0 NW 13 17 7 9 1018.9 1018.8 0.2
19/05:00am 11.3 9.2 11.3 100 0.0 NW 13 19 7 10 1018.7 1018.6 0.2
19/04:30am 11.0 9.2 11.0 100 0.0 NW 11 13 6 7 1018.5 1018.4 0.2
19/04:00am 10.8 9.4 10.8 100 0.0 NW 9 11 5 6 1018.3 1018.2 0.2
19/03:30am 10.5 10.7 10.5 100 0.0 CALM 0 0 0 0 1018.4 1018.3 0.2
19/03:00am 10.9 10.4 10.9 100 0.0 WNW 4 7 2 4 1018.2 1018.1 0.2
19/02:30am 11.5 10.3 11.5 100 0.0 NW 9 11 5 6 1018.4 1018.3 0.2
19/02:00am 11.0 10.0 11.0 100 0.0 WNW 7 9 4 5 1018.7 1018.6 0.2
19/01:30am 11.6 10.4 11.6 100 0.0 WNW 9 9 5 5 1018.9 1018.8 0.2
19/01:00am 11.5 10.8 11.5 100 0.0 NW 6 7 3 4 1019.1 1019.0 0.2
19/12:30am 11.5 10.3 11.5 100 0.0 WNW 9 9 5 5 1019.3 1019.2 0.2
19/12:00am 11.7 10.5 11.7 100 0.0 NW 9 9 5 5 1019.3 1019.2 0.2
 
Date/Time
EST
Temp
°C
App
Temp
°C
Dew
Point
°C
Rel
Hum
%
Delta-T
°C
Wind Press
QNH
hPa
Press
MSL
hPa
Rain since
9am
mm
Dir  Spd
km/h
Gust
km/h
Spd
kts
Gust
kts
18/11:30pm 11.8 11.0 11.8 100 0.0 NW 7 9 4 5 1019.5 1019.4 0.2
18/11:00pm 11.7 10.5 11.7 100 0.0 NW 9 11 5 6 1019.7 1019.6 0.2
18/10:30pm 11.3 11.7 11.1 99 0.1 CALM 0 0 0 0 1019.9 1019.8 0.2
18/10:00pm 11.5 10.8 11.3 99 0.1 WSW 6 7 3 4 1020.0 1019.9 0.2
18/09:30pm 11.7 12.1 11.4 98 0.2 CALM 0 0 0 0 1019.9 1019.8 0.2
18/09:00pm 12.6 13.3 12.3 98 0.2 CALM 0 0 0 0 1019.8 1019.7 0.2
18/08:30pm 12.6 13.3 12.3 98 0.2 CALM 0 7 0 4 1019.9 1019.8 0.2
18/08:00pm 12.7 13.4 12.2 97 0.3 CALM 0 0 0 0 1020.0 1019.9 0.2
18/07:30pm 13.2 14.0 12.6 96 0.3 CALM 0 0 0 0 1020.0 1019.9 0.2
18/07:00pm 13.1 13.8 12.3 95 0.4 CALM 0 0 0 0 1019.9 1019.8 0.2
18/06:30pm 14.0 14.6 13.1 94 0.5 NW 2 7 1 4 1019.7 1019.6 0.2
18/06:27pm 14.0 14.9 12.9 93 0.6 CALM 0 0 0 0 1019.6 1019.5 0.2
18/06:03pm 14.8 15.7 12.8 88 1.1 CALM 0 0 0 0 1019.3 1019.2 0.2
18/06:00pm 15.0 15.9 13.0 88 1.1 CALM 0 0 0 0 1019.3 1019.2 0.2
18/05:30pm 16.9 16.8 12.2 74 2.6 SE 4 9 2 5 1019.1 1019.0 0.2
18/05:00pm 17.9 16.5 12.1 69 3.2 SE 11 15 6 8 1019.0 1018.9 0.2
18/04:30pm 19.1 17.0 12.4 65 3.7 SE 15 19 8 10 1018.9 1018.8 0.2
18/04:00pm 19.5 16.4 11.5 60 4.4 SE 19 24 10 13 1018.8 1018.7 0.2
18/03:30pm 19.9 16.6 11.7 59 4.5 SSE 20 28 11 15 1018.8 1018.7 0.2
18/03:00pm 19.4 16.2 11.4 60 4.4 SSE 19 26 10 14 1018.8 1018.7 0.2
18/02:30pm 19.8 17.1 11.8 60 4.4 SSE 17 24 9 13 1019.0 1018.9 0.2
18/02:00pm 19.9 17.0 12.4 62 4.2 SSE 19 26 10 14 1019.1 1019.0 0.2
18/01:30pm 18.9 15.8 11.5 62 4.1 SSE 19 28 10 15 1019.3 1019.2 0.2
18/01:00pm 19.7 18.4 11.2 58 4.6 SW 9 17 5 9 1019.7 1019.6 0.2

Other formats

Comma delimited format used in spreadsheet applications
http://www.bom.gov.au/fwo/IDN60801/IDN60801.94776.axf

JavaScript Object Notation format (JSON) in row-major order
http://www.bom.gov.au/fwo/IDN60801/IDN60801.94776.json

Data quality

Most of these data are generated automatically and are frequently updated. Quality checks on data are not normally performed. It is possible for incorrect values to appear. Refer to information at About Latest Weather Observations and please check the disclaimer before using these data.